Latest Coastal Weather Observations for Hopetoun North

IDW60701

Issued at 9:42 pm WST Saturday 28 May 2016 (issued every 10 minutes, with the page automatically refreshed every 10 minutes)

About coastal observations | Map of coastal stations | Coastal observations for WA | Marine services | Other Formats
Station Details ID: 009961 Name: HOPETOUN NORTH Lat: -33.93 Lon: 120.13 Height: 26.0 m
Data from the previous 72 hours. | See also: Recent months at Hopetoun North
Date/Time
WST
Temp

°C
Wind Pressure Rain
since 9am
mm
Weather Cloud Vis
km
Sea
Height
m
Swell
Dir
 
Speed
knots
Gust
knots
hPa Trend Height
m
Period
s
Dir
28/09:30pm - W 8 12 1013.6 - 0.6 - - - - - - -
28/09:00pm - W 8 11 1013.4 - 0.6 - - - - - - -
28/08:30pm - W 6 9 1013.2 - 0.6 - - - - - - -
28/08:00pm - W 5 7 1013.2 - 0.6 - - - - - - -
28/07:30pm - W 6 8 1013.2 - 0.6 - - - - - - -
28/07:00pm - WNW 6 8 1012.9 - 0.6 - - - - - - -
28/06:30pm - W 7 9 1012.5 - 0.6 - - - - - - -
28/06:00pm - WSW 9 14 1012.2 - 0.6 Recent precip. - - - - - -
28/05:30pm - WSW 7 11 1012.0 - 0.6 - - - - - - -
28/05:00pm - WSW 8 11 1011.5 - 0.0 - - - - - - -
28/04:30pm - W 9 13 1011.0 - 0.0 - - - - - - -
28/04:00pm - W 9 15 1010.7 - 0.0 - - - - - - -
28/03:30pm - WSW 11 17 1010.4 - 0.0 - - - - - - -
28/03:00pm - WSW 11 17 1010.2 - 0.0 - - - - - - -
28/02:30pm - W 10 14 1010.0 - 0.0 - - - - - - -
28/02:00pm - WSW 10 17 1010.0 - 0.0 - - - - - - -
28/01:30pm - W 12 19 1009.9 - 0.0 - - - - - - -
28/01:00pm - W 12 17 1009.9 - 0.0 - - - - - - -
28/12:30pm - W 15 23 1009.9 - 0.0 - - - - - - -
28/12:00pm - W 14 21 1010.1 - 0.0 - - - - - - -
28/11:30am - W 11 20 1010.5 - 0.0 - - - - - - -
28/11:00am - W 13 21 1010.9 - 0.0 - - - - - - -
28/10:30am - WNW 12 18 1011.2 - 0.0 - - - - - - -
28/10:00am - WNW 11 16 1011.4 - 0.0 - - - - - - -
28/09:30am - NW 10 15 1011.6 - 0.0 - - - - - - -
28/09:00am - NNW 9 15 1011.4 - 1.2 - - - - - - -
28/08:30am - N 8 13 1011.9 - 1.2 - - - - - - -
28/08:00am - N 8 12 1012.0 - 1.2 - - - - - - -
28/07:30am - N 9 14 1012.6 - 1.0 - - - - - - -
28/07:00am - NNW 7 11 1012.8 - 0.4 - - - - - - -
28/06:30am - NNW 14 19 1012.7 - 0.0 - - - - - - -
28/06:00am - N 10 14 1011.8 - 0.0 - - - - - - -
28/05:30am - N 10 13 1012.0 - 0.0 - - - - - - -
28/05:00am - N 8 10 1012.0 - 0.0 - - - - - - -
28/04:30am - N 7 8 1012.1 - 0.0 - - - - - - -
28/04:00am - NNE 8 11 1012.3 - 0.0 - - - - - - -
28/03:30am - N 8 11 1012.9 - 0.0 - - - - - - -
28/03:00am - N 4 7 1013.2 - 0.0 - - - - - - -
28/02:30am - NNE 5 7 1013.7 - 0.0 - - - - - - -
28/02:00am - N 6 9 1014.1 - 0.0 - - - - - - -
28/01:30am - N 3 4 1014.4 - 0.0 - - - - - - -
28/01:00am - N 1 3 1014.8 - 0.0 - - - - - - -
28/12:30am - NNE 1 8 1015.2 - 0.0 - - - - - - -
28/12:00am - NNE 5 7 1015.6 - 0.0 - - - - - - -
 
Date/Time
WST
Temp

°C
Wind Pressure Rain
since 9am
mm
Weather Cloud Vis
km
Sea
Height
m
Swell
Dir
 
Speed
knots
Gust
knots
hPa Trend Height
m
Period
s
Dir
27/11:30pm - NE 6 7 1016.2 - 0.0 - - - - - - -
27/11:00pm - NE 4 6 1016.9 - 0.0 - - - - - - -
27/10:30pm - NE 4 5 1017.5 - 0.0 - - - - - - -
27/10:00pm - N 4 5 1017.8 - 0.0 - - - - - - -
27/09:30pm - N 4 5 1018.1 - 0.0 - - - - - - -
27/09:00pm - NNE 3 4 1018.4 - 0.0 - - - - - - -
27/08:30pm - NE 5 6 1018.4 - 0.0 - - - - - - -
27/08:00pm - NE 4 5 1018.5 - 0.0 - - - - - - -
27/07:30pm - ENE 5 6 1018.6 - 0.0 - - - - - - -
27/07:00pm - ENE 5 6 1018.7 - 0.0 - - - - - - -
27/06:30pm - ENE 4 5 1018.9 - 0.0 - - - - - - -
27/06:00pm - NNE 3 3 1018.6 - 0.0 - - - - - - -
27/05:30pm - N 3 4 1018.3 - 0.0 - - - - - - -
27/05:00pm - N 3 5 1018.6 - 0.0 - - - - - - -
27/04:30pm - NNW 5 7 1018.8 - 0.0 - - - - - - -
27/04:00pm - N 6 9 1019.1 - 0.0 - - - - - - -
27/03:30pm - NNW 5 9 1019.3 - 0.0 - - - - - - -
27/03:00pm - N 7 10 1019.4 - 0.0 - - - - - - -
27/02:30pm - N 7 11 1019.5 - 0.0 - - - - - - -
27/02:00pm - N 7 11 1019.8 - 0.0 - - - - - - -
27/01:30pm - N 7 11 1020.0 - 0.0 - - - - - - -
27/01:00pm - N 6 10 1020.4 - 0.0 - - - - - - -
27/12:30pm - N 5 8 1021.0 - 0.0 - - - - - - -
27/12:00pm - N 6 9 1021.7 - 0.0 - - - - - - -
27/11:30am - NNW 2 6 1022.4 - 0.0 - - - - - - -
27/11:00am - NW 4 6 1022.8 - 0.0 - - - - - - -
27/10:30am - W 4 7 1023.3 - 0.0 - - - - - - -
27/10:00am - NW 3 5 1023.5 - 0.0 - - - - - - -
27/09:30am - NNW 2 4 1023.5 - 0.0 - - - - - - -
27/09:00am - NNW 3 4 1023.6 - 0.0 - - - - - - -
27/08:30am - NNW 3 4 1023.3 - 0.0 - - - - - - -
27/08:00am - NNW 3 4 1023.2 - 0.0 - - - - - - -
27/07:30am - W 1 3 1023.2 - 0.0 - - - - - - -
27/07:00am - NNW 4 5 1022.8 - 0.0 - - - - - - -
27/06:30am - NNW 4 6 1022.3 - 0.0 - - - - - - -
27/06:00am - NNW 4 5 1022.1 - 0.0 - - - - - - -
27/05:30am - N 4 5 1021.9 - 0.0 - - - - - - -
27/05:00am - N 3 4 1021.5 - 0.0 - - - - - - -
27/04:30am - NNW 5 8 1021.6 - 0.0 - - - - - - -
27/04:00am - WNW 6 8 1021.7 - 0.0 - - - - - - -
27/03:30am - NW 6 8 1021.6 - 0.0 - - - - - - -
27/03:00am - NW 6 8 1021.7 - 0.0 - - - - - - -
27/02:30am - NW 6 8 1021.8 - 0.0 - - - - - - -
27/02:00am - NW 7 10 1022.0 - 0.0 - - - - - - -
27/01:30am - NNW 5 7 1021.9 - 0.0 - - - - - - -
27/01:00am - NW 6 8 1021.6 - 0.0 - - - - - - -
27/12:30am - NW 6 8 1021.6 - 0.0 - - - - - - -
27/12:00am - NW 5 7 1021.5 - 0.0 - - - - - - -
 
Date/Time
WST
Temp

°C
Wind Pressure Rain
since 9am
mm
Weather Cloud Vis
km
Sea
Height
m
Swell
Dir
 
Speed
knots
Gust
knots
hPa Trend Height
m
Period
s
Dir
26/11:30pm - NW 5 7 1021.5 - 0.0 - - - - - - -
26/11:00pm - NW 6 8 1021.5 - 0.0 - - - - - - -
26/10:30pm - NW 5 6 1021.3 - 0.0 - - - - - - -
26/10:00pm - NW 6 7 1021.1 - 0.0 - - - - - - -
26/09:30pm - NW 6 8 1020.8 - 0.0 - - - - - - -
26/09:00pm - WNW 6 8 1020.8 - 0.0 - - - - - - -
26/08:30pm - NW 6 7 1020.9 - 0.0 - - - - - - -
26/08:00pm - WNW 7 8 1020.7 - 0.0 - - - - - - -
26/07:30pm - WNW 7 8 1020.0 - 0.0 - - - - - - -
26/07:00pm - NW 6 7 1019.7 - 0.0 - - - - - - -
26/06:30pm - W 8 11 1019.2 - 0.0 - - - - - - -
26/06:00pm - WSW 7 11 1018.9 - 0.0 - - - - - - -
26/05:30pm - WSW 7 17 1018.4 - 0.0 - - - - - - -
26/05:00pm - SW 7 9 1018.0 - 0.0 - - - - - - -
26/04:30pm - SW 10 14 1017.7 - 0.0 - - - - - - -
26/04:00pm - SW 11 16 1017.2 - 0.0 - - - - - - -
26/03:30pm - SSW 11 15 1016.7 - 0.0 - - - - - - -
26/03:00pm - SW 11 15 1016.6 - 0.0 - - - - - - -
26/02:30pm - SW 12 18 1016.1 - 0.0 - - - - - - -
26/02:00pm - WSW 12 17 1015.9 - 0.0 - - - - - - -
26/01:30pm - WSW 13 21 1015.8 - 0.0 - - - - - - -
26/01:00pm - WSW 16 23 1015.4 - 0.0 - - - - - - -
26/12:30pm - WSW 15 21 1015.1 - 0.0 - - - - - - -
26/12:00pm - WSW 14 21 1015.1 - 0.0 - - - - - - -
26/11:30am - WSW 13 21 1015.2 - 0.0 - - - - - - -
26/11:00am - WSW 12 18 1015.0 - 0.0 - - - - - - -
26/10:30am - W 14 21 1015.0 - 0.0 - - - - - - -
26/10:00am - W 14 22 1014.7 - 0.0 - - - - - - -
26/09:30am - W 9 15 1014.3 - 0.0 - - - - - - -
26/09:00am - WNW 10 15 1013.7 - 0.0 - - - - - - -
26/08:30am - W 12 19 1013.5 - 0.0 - - - - - - -
26/08:00am - WNW 11 17 1013.2 - 0.0 - - - - - - -
26/07:30am - WNW 9 13 1012.5 - 0.0 - - - - - - -
26/07:00am - WNW 9 14 1011.9 - 0.0 - - - - - - -
26/06:30am - WNW 10 16 1011.6 - 0.0 - - - - - - -
26/06:00am - NW 5 16 1011.0 - 0.0 - - - - - - -
26/05:30am - NNW 7 10 1010.6 - 0.0 - - - - - - -
26/05:00am - N 2 5 1010.7 - 0.0 - - - - - - -
26/04:30am - NNW 7 14 1010.3 - 0.0 - - - - - - -
26/04:00am - NW 11 23 1010.3 - 0.0 - - - - - - -
26/03:30am - WNW 11 17 1010.5 - 0.0 - - - - - - -
26/03:00am - NW 10 19 1010.4 - 0.0 - - - - - - -
26/02:30am - WNW 10 16 1010.1 - 0.0 - - - - - - -
26/02:00am - NW 9 13 1010.2 - 0.0 - - - - - - -
26/01:30am - NW 9 14 1010.0 - 0.0 - - - - - - -
26/01:00am - NW 9 13 1010.1 - 0.0 - - - - - - -
26/12:30am - NW 10 14 1010.3 - 0.0 - - - - - - -
26/12:00am - NNW 7 10 1010.5 - 0.0 - - - - - - -
 
Date/Time
WST
Temp

°C
Wind Pressure Rain
since 9am
mm
Weather Cloud Vis
km
Sea
Height
m
Swell
Dir
 
Speed
knots
Gust
knots
hPa Trend Height
m
Period
s
Dir
25/11:30pm - NW 8 11 1010.5 - 0.0 - - - - - - -
25/11:00pm - NW 6 8 1010.7 - 0.0 - - - - - - -
25/10:30pm - NNW 7 11 1010.8 - 0.0 - - - - - - -
25/10:00pm - NNW 8 11 1011.1 - 0.0 - - - - - - -

Other Formats:

Comma delimited format used in spreadsheet applications
http://www.bom.gov.au/fwo/IDW60701/IDW60701.95635.axf

JavaScript Object Notation format (JSON) in row-major order
http://www.bom.gov.au/fwo/IDW60701/IDW60701.95635.json